Terminal Aerodrome Forecast
Issued by NWS Albany, NY

Home | Current Version | Previous Version | Text Only | Print | Product List | Glossary On
Versions: 1 2 3 4 5 6 7 8 9 10 11 12 13 14 15 16 17 18 19
000
FTUS41 KALY 220520
TAFGFL
TAF
KGFL 220520Z 2206/2306 VRB02KT P6SM MIFG BKN200
     FM221200 VRB03KT 6SM BR VCSH OVC100
     FM221400 VRB03KT 6SM -SHRA OVC080
     FM221800 16007KT 6SM -SHRA OVC025 WS020/18035KT
     FM230000 18006KT 6SM BR VCSH OVC015=

USA.gov is the U.S. government's official web portal to all federal, state and local government web resources and services.